Time;durP1;ratioP1;P1;durP2;ratioP2;P2;SDS_P1;SDS_P2;PMS_P1;PMS_P2;Temp;Humidity;BMP_temperature;BMP_pressure;BME280_temperature;BME280_humidity;BME280_pressure;Samples;Min_cycle;Max_cycle;Signal;HPM_P1;HPM_P2
2022/04/28 00:01:47;;;;;;;11.50;4.13;;;8.80;66.80;;;;;;5056351;28;20082;-73
2022/04/28 00:04:13;;;;;;;9.00;3.87;;;8.80;67.20;;;;;;5056507;28;20108;-73
2022/04/28 00:06:38;;;;;;;10.10;4.03;;;8.80;67.10;;;;;;5074076;28;20021;-76
2022/04/28 00:09:05;;;;;;;12.00;4.20;;;8.70;67.30;;;;;;5055359;28;20028;-76
2022/04/28 00:11:31;;;;;;;10.30;3.60;;;8.70;67.20;;;;;;5073873;28;20037;-76
2022/04/28 00:13:58;;;;;;;9.30;4.17;;;8.70;67.60;;;;;;5073834;28;20384;-76
2022/04/28 00:16:24;;;;;;;8.13;4.40;;;8.60;67.50;;;;;;5056358;28;20079;-76
2022/04/28 00:18:50;;;;;;;8.23;3.97;;;8.60;67.60;;;;;;5073697;28;20077;-76
2022/04/28 00:21:15;;;;;;;10.53;3.80;;;8.60;68.00;;;;;;5073871;28;20103;-76
2022/04/28 00:23:41;;;;;;;11.47;4.43;;;8.60;68.00;;;;;;5055789;28;20044;-76
2022/04/28 00:26:07;;;;;;;11.33;4.10;;;8.50;68.20;;;;;;5074194;28;20100;-76
2022/04/28 00:28:32;;;;;;;12.20;4.90;;;8.50;68.20;;;;;;5073726;28;20036;-76
2022/04/28 00:30:58;;;;;;;12.07;4.10;;;8.50;68.50;;;;;;5073666;28;20103;-76
2022/04/28 00:33:23;;;;;;;12.80;3.90;;;8.50;68.50;;;;;;5073647;28;20387;-76
2022/04/28 00:35:49;;;;;;;11.93;3.97;;;8.40;68.50;;;;;;5073654;28;20025;-77
2022/04/28 00:38:15;;;;;;;12.43;4.60;;;8.50;68.90;;;;;;5073935;28;20117;-77
2022/04/28 00:40:40;;;;;;;14.57;4.80;;;8.40;69.30;;;;;;5073717;28;20101;-77
2022/04/28 00:43:18;;;;;;;16.27;4.03;;;8.40;69.30;;;;;;5055722;28;20176;-77
2022/04/28 00:45:45;;;;;;;12.13;4.50;;;8.40;69.30;;;;;;5055484;28;20369;-77
2022/04/28 00:50:57;;;;;;;15.82;5.53;;;8.30;70.20;;;;;;5073719;28;20393;-77
2022/04/28 00:53:26;;;;;;;13.77;4.87;;;8.40;70.20;;;;;;5055482;28;20413;-77
2022/04/28 00:55:52;;;;;;;9.97;4.70;;;8.30;70.30;;;;;;5073464;28;20522;-77
2022/04/28 00:58:19;;;;;;;8.97;4.63;;;8.30;70.10;;;;;;5055712;28;20187;-77
2022/04/28 01:00:45;;;;;;;15.90;4.07;;;8.30;70.20;;;;;;5073367;28;20527;-77
2022/04/28 01:03:12;;;;;;;10.27;3.80;;;8.20;70.20;;;;;;5073359;28;20020;-76
2022/04/28 01:05:38;;;;;;;8.90;4.20;;;8.20;70.30;;;;;;5073285;28;20048;-76
2022/04/28 01:08:05;;;;;;;9.30;4.37;;;8.20;70.50;;;;;;5073314;28;20031;-76
2022/04/28 01:10:30;;;;;;;10.80;4.53;;;8.20;70.70;;;;;;5073164;28;20028;-76
2022/04/28 01:12:56;;;;;;;10.07;4.03;;;8.20;70.90;;;;;;5055632;28;20035;-76
2022/04/28 01:15:22;;;;;;;10.23;4.53;;;8.20;71.20;;;;;;5055338;28;20480;-77
2022/04/28 01:17:48;;;;;;;15.70;4.90;;;8.10;71.10;;;;;;5055083;28;20029;-76
2022/04/28 01:20:13;;;;;;;8.70;3.80;;;8.10;71.30;;;;;;5075401;28;20032;-76
2022/04/28 01:22:40;;;;;;;8.37;4.27;;;8.10;71.40;;;;;;5059104;28;20040;-76
2022/04/28 01:25:07;;;;;;;16.40;4.40;;;8.00;71.40;;;;;;5059504;28;20029;-76
2022/04/28 01:27:34;;;;;;;12.63;5.43;;;8.10;71.60;;;;;;5042511;28;20021;-77
2022/04/28 01:29:59;;;;;;;14.23;4.33;;;8.00;71.70;;;;;;5059133;28;20373;-77
2022/04/28 01:32:26;;;;;;;15.17;5.07;;;8.00;72.10;;;;;;5042547;28;20127;-77
2022/04/28 01:34:52;;;;;;;13.57;5.57;;;8.00;72.00;;;;;;5059359;28;20021;-77
2022/04/28 01:37:18;;;;;;;12.60;4.67;;;8.00;72.10;;;;;;5076935;28;20124;-77
2022/04/28 01:39:44;;;;;;;9.83;4.23;;;8.10;72.20;;;;;;5042273;28;20029;-77
2022/04/28 01:42:09;;;;;;;12.17;4.30;;;8.00;72.30;;;;;;5057204;28;20063;-77
2022/04/28 01:44:35;;;;;;;14.70;4.97;;;7.90;72.30;;;;;;5075699;28;20104;-77
2022/04/28 01:47:01;;;;;;;12.83;5.63;;;7.90;72.60;;;;;;5075549;28;20068;-77
2022/04/28 01:49:27;;;;;;;10.37;5.07;;;7.90;72.70;;;;;;5076790;28;20062;-77
2022/04/28 01:57:21;;;;;;;9.38;4.60;;;7.80;72.70;;;;;;5061671;28;20051;-77
2022/04/28 01:59:47;;;;;;;12.07;4.53;;;7.80;72.80;;;;;;5076455;28;20032;-77
2022/04/28 02:02:13;;;;;;;9.67;4.53;;;7.80;73.00;;;;;;5076775;28;20051;-77
2022/04/28 02:04:38;;;;;;;11.60;5.10;;;7.80;73.00;;;;;;5076443;28;20568;-77
2022/04/28 02:07:06;;;;;;;11.93;4.83;;;7.70;73.00;;;;;;5075090;28;20036;-77
2022/04/28 02:09:32;;;;;;;12.07;4.80;;;7.70;73.20;;;;;;5091978;28;20500;-76
2022/04/28 02:11:58;;;;;;;12.57;4.97;;;7.70;73.40;;;;;;5058478;28;20040;-77
2022/04/28 02:14:23;;;;;;;12.57;4.53;;;7.70;73.70;;;;;;5091936;28;20024;-77
2022/04/28 02:16:49;;;;;;;15.07;5.57;;;7.70;73.80;;;;;;5091803;28;20033;-77
2022/04/28 02:19:15;;;;;;;14.60;5.57;;;7.70;74.20;;;;;;5076152;28;20055;-77
2022/04/28 02:21:40;;;;;;;13.63;5.13;;;7.70;74.30;;;;;;5076138;28;20047;-77
2022/04/28 02:24:07;;;;;;;11.77;5.10;;;7.60;74.10;;;;;;5076039;28;20047;-77
2022/04/28 02:26:33;;;;;;;16.50;5.53;;;7.60;74.20;;;;;;5066867;28;20036;-77
2022/04/28 02:28:58;;;;;;;13.57;5.60;;;7.60;74.40;;;;;;5093965;28;20042;-77
2022/04/28 02:31:24;;;;;;;13.90;5.37;;;7.60;74.70;;;;;;5077179;28;20431;-77
2022/04/28 02:33:49;;;;;;;18.47;5.77;;;7.60;74.70;;;;;;5095997;28;20103;-77
2022/04/28 02:36:15;;;;;;;9.67;5.03;;;7.50;75.00;;;;;;5077959;28;20042;-77
2022/04/28 02:38:41;;;;;;;13.20;5.27;;;7.50;75.00;;;;;;5078057;28;20064;-77
2022/04/28 02:41:07;;;;;;;12.23;5.63;;;7.50;75.20;;;;;;5096511;28;20397;-77
2022/04/28 02:43:32;;;;;;;13.53;5.27;;;7.50;75.10;;;;;;5096377;28;20024;-77
2022/04/28 02:45:58;;;;;;;13.30;5.17;;;7.50;75.30;;;;;;5077924;28;20032;-77
2022/04/28 02:48:24;;;;;;;12.73;5.27;;;7.50;75.60;;;;;;5077652;28;20032;-75
2022/04/28 02:50:50;;;;;;;14.20;6.03;;;7.40;75.50;;;;;;5095849;28;20055;-73
2022/04/28 02:53:16;;;;;;;15.30;5.97;;;7.40;75.60;;;;;;5060890;28;20078;-74
2022/04/28 02:55:42;;;;;;;15.83;5.07;;;7.30;75.60;;;;;;5060835;28;20036;-74
2022/04/28 02:58:08;;;;;;;16.03;5.47;;;7.30;75.60;;;;;;5077725;28;20039;-74
2022/04/28 03:00:36;;;;;;;11.70;5.77;;;7.40;75.90;;;;;;5095704;28;20107;-74
2022/04/28 03:03:01;;;;;;;13.50;5.80;;;7.40;76.10;;;;;;5077553;28;20036;-73
2022/04/28 03:05:27;;;;;;;13.67;5.23;;;7.30;76.40;;;;;;5095555;28;20031;-74
2022/04/28 03:10:54;;;;;;;13.23;4.97;;;7.30;76.70;;;;;;5095804;28;20055;-73
2022/04/28 03:13:24;;;;;;;13.93;5.20;;;7.20;77.00;;;;;;5080414;28;20051;-73
2022/04/28 03:15:50;;;;;;;12.37;5.00;;;7.20;76.70;;;;;;5095274;28;20024;-73
2022/04/28 03:18:17;;;;;;;15.13;5.30;;;7.20;76.60;;;;;;5095177;28;20361;-73
2022/04/28 03:20:43;;;;;;;14.87;6.00;;;7.10;76.80;;;;;;5095388;28;20361;-73
2022/04/28 03:23:11;;;;;;;13.43;5.50;;;7.00;76.90;;;;;;5095326;28;20417;-73
2022/04/28 03:25:37;;;;;;;14.57;5.20;;;7.10;77.30;;;;;;5077903;28;20388;-73
2022/04/28 03:28:03;;;;;;;13.77;5.43;;;7.10;77.80;;;;;;5095436;28;20472;-73
2022/04/28 03:30:29;;;;;;;14.57;5.77;;;7.10;77.60;;;;;;5076948;28;20024;-73
2022/04/28 03:32:55;;;;;;;12.40;5.40;;;7.10;78.60;;;;;;5094713;28;20085;-73
2022/04/28 03:35:20;;;;;;;12.40;5.43;;;7.10;78.50;;;;;;5076825;28;20462;-73
2022/04/28 03:37:49;;;;;;;14.37;6.10;;;7.10;79.00;;;;;;5060025;28;20024;-73
2022/04/28 03:40:16;;;;;;;15.67;5.20;;;7.10;78.80;;;;;;5076958;28;20021;-73
2022/04/28 03:42:42;;;;;;;11.00;5.43;;;7.10;79.10;;;;;;5076604;28;20483;-77
2022/04/28 03:45:08;;;;;;;11.03;5.60;;;7.10;78.70;;;;;;5094751;28;20077;-77
2022/04/28 03:47:37;;;;;;;14.90;5.13;;;7.10;78.60;;;;;;5094708;28;20024;-77
2022/04/28 03:50:04;;;;;;;11.23;4.50;;;7.10;78.70;;;;;;5094685;28;20133;-77
2022/04/28 03:52:30;;;;;;;12.60;5.00;;;7.00;78.50;;;;;;5094553;28;20489;-76
2022/04/28 03:54:56;;;;;;;13.40;5.17;;;7.00;78.50;;;;;;5094503;28;20028;-76
2022/04/28 03:57:21;;;;;;;9.70;4.87;;;7.00;78.50;;;;;;5076275;28;20043;-77
2022/04/28 03:59:47;;;;;;;11.40;4.73;;;7.00;78.60;;;;;;5094280;28;20036;-77
2022/04/28 04:02:13;;;;;;;11.90;5.00;;;7.00;78.70;;;;;;5094404;28;20027;-77
2022/04/28 04:04:39;;;;;;;12.70;4.77;;;6.90;78.70;;;;;;5094478;28;20507;-77
2022/04/28 04:07:05;;;;;;;9.60;4.13;;;7.00;78.80;;;;;;5060050;28;20024;-77
2022/04/28 04:09:31;;;;;;;9.50;4.80;;;7.00;78.90;;;;;;5094384;28;20036;-73
2022/04/28 04:11:56;;;;;;;12.40;4.70;;;7.00;79.00;;;;;;5076355;28;20020;-73
2022/04/28 04:14:22;;;;;;;9.23;4.53;;;7.00;79.10;;;;;;5076341;28;20032;-73
2022/04/28 04:16:48;;;;;;;10.73;4.77;;;6.90;80.00;;;;;;5076083;28;20028;-73
2022/04/28 04:19:13;;;;;;;9.67;4.47;;;6.90;79.40;;;;;;5059283;28;20492;-73
2022/04/28 04:21:39;;;;;;;13.37;4.50;;;7.00;79.40;;;;;;5094120;28;20020;-73
2022/04/28 04:24:06;;;;;;;12.20;4.77;;;6.90;79.70;;;;;;5075922;28;20123;-73
2022/04/28 04:26:31;;;;;;;11.17;4.27;;;6.90;79.80;;;;;;5074031;28;20361;-73
2022/04/28 04:28:57;;;;;;;7.70;4.00;;;6.90;80.10;;;;;;5072366;28;20039;-73
2022/04/28 04:34:07;;;;;;;21.33;5.43;;;7.00;80.60;;;;;;5073628;28;20531;-77
2022/04/28 04:36:32;;;;;;;11.73;4.10;;;7.00;80.70;;;;;;5073540;28;20036;-77
2022/04/28 04:38:58;;;;;;;10.67;4.90;;;7.00;80.50;;;;;;5073239;28;20097;-77
2022/04/28 04:41:24;;;;;;;12.37;5.20;;;7.00;81.20;;;;;;5055485;28;20033;-77
2022/04/28 04:43:49;;;;;;;13.83;5.10;;;7.00;81.30;;;;;;5055679;28;20064;-78
2022/04/28 04:46:15;;;;;;;13.03;5.03;;;7.00;81.70;;;;;;5073475;28;20039;-77
2022/04/28 04:48:40;;;;;;;12.27;5.20;;;7.10;82.00;;;;;;5055628;28;20428;-77
2022/04/28 04:51:06;;;;;;;10.53;4.80;;;7.00;82.00;;;;;;5055486;28;20040;-77
2022/04/28 04:53:31;;;;;;;20.93;5.53;;;7.10;81.80;;;;;;5073408;28;20503;-77
2022/04/28 04:55:57;;;;;;;12.73;5.47;;;7.10;82.30;;;;;;5071671;28;20024;-77
2022/04/28 04:58:23;;;;;;;15.10;5.27;;;7.10;82.00;;;;;;5055490;28;20039;-77
2022/04/28 05:00:49;;;;;;;12.27;5.57;;;7.20;82.00;;;;;;5073252;28;20058;-78
2022/04/28 05:03:14;;;;;;;12.90;4.93;;;7.20;82.00;;;;;;5060918;28;20465;-78
2022/04/28 05:05:41;;;;;;;13.80;5.27;;;7.10;81.90;;;;;;5075393;28;20032;-77
2022/04/28 05:08:07;;;;;;;14.97;4.93;;;7.20;82.00;;;;;;5075306;28;20020;-78
2022/04/28 05:10:33;;;;;;;12.47;4.73;;;7.20;82.20;;;;;;5093310;28;20490;-77
2022/04/28 05:12:58;;;;;;;12.90;4.93;;;7.10;82.10;;;;;;5093404;28;20040;-77
2022/04/28 05:15:24;;;;;;;13.43;5.37;;;7.10;82.70;;;;;;5075232;28;20056;-77
2022/04/28 05:17:49;;;;;;;13.83;5.33;;;7.20;82.70;;;;;;5093126;28;20889;-77
2022/04/28 05:20:15;;;;;;;12.57;4.63;;;7.20;83.10;;;;;;5095064;28;20028;-77
2022/04/28 05:22:41;;;;;;;16.50;5.43;;;7.20;83.00;;;;;;5087917;28;20122;-78
2022/04/28 05:25:07;;;;;;;14.47;5.10;;;7.20;83.00;;;;;;5081369;28;20120;-77
2022/04/28 05:27:32;;;;;;;9.67;4.23;;;7.30;83.10;;;;;;5095553;28;20039;-77
2022/04/28 05:29:58;;;;;;;12.20;4.30;;;7.30;83.00;;;;;;5095407;28;20043;-77
2022/04/28 05:32:23;;;;;;;13.33;4.07;;;7.30;83.50;;;;;;5099887;28;20151;-78
2022/04/28 05:34:49;;;;;;;11.90;4.93;;;7.40;83.40;;;;;;5054385;28;20039;-78
2022/04/28 05:37:15;;;;;;;18.13;5.23;;;7.40;83.60;;;;;;5087054;28;20059;-78
2022/04/28 05:39:42;;;;;;;9.70;3.83;;;7.50;83.60;;;;;;5086617;28;20462;-73
2022/04/28 05:42:09;;;;;;;12.27;4.53;;;7.60;83.70;;;;;;5078811;28;20106;-73
2022/04/28 05:47:24;;;;;;;9.33;3.93;;;7.60;84.30;;;;;;5088865;28;20035;-72
2022/04/28 05:49:50;;;;;;;10.43;4.57;;;7.60;83.50;;;;;;5073608;28;20036;-72
2022/04/28 05:52:15;;;;;;;12.90;4.47;;;7.70;83.40;;;;;;5073676;28;20122;-72
2022/04/28 05:54:41;;;;;;;16.27;4.37;;;7.70;83.50;;;;;;5077569;28;20043;-72
2022/04/28 05:57:07;;;;;;;14.40;4.17;;;7.70;83.60;;;;;;5089771;28;20065;-73
2022/04/28 05:59:33;;;;;;;11.37;4.20;;;7.70;83.10;;;;;;5074977;28;20032;-72
2022/04/28 06:01:58;;;;;;;11.70;4.03;;;7.90;83.20;;;;;;5074580;28;20032;-72
2022/04/28 06:04:25;;;;;;;11.53;4.33;;;7.90;83.00;;;;;;5074856;28;20020;-73
2022/04/28 06:06:51;;;;;;;9.93;3.53;;;7.90;83.10;;;;;;5076774;28;20032;-72
2022/04/28 06:09:16;;;;;;;10.77;3.50;;;8.00;83.20;;;;;;5096226;28;20085;-73
2022/04/28 06:11:42;;;;;;;13.20;4.73;;;8.00;83.00;;;;;;5078043;28;20032;-73
2022/04/28 06:14:07;;;;;;;13.37;4.10;;;8.10;83.00;;;;;;5078538;28;20035;-78
2022/04/28 06:16:33;;;;;;;12.83;4.10;;;8.10;82.70;;;;;;5078543;28;20035;-78
2022/04/28 06:18:58;;;;;;;7.80;3.00;;;8.10;82.50;;;;;;5060999;28;20505;-78
2022/04/28 06:21:24;;;;;;;13.37;4.20;;;8.20;82.30;;;;;;5096184;28;20030;-77
2022/04/28 06:23:50;;;;;;;10.93;3.60;;;8.20;82.00;;;;;;5078033;28;20381;-78
2022/04/28 06:26:16;;;;;;;15.10;3.50;;;8.30;82.00;;;;;;5094923;28;20419;-76
2022/04/28 06:28:42;;;;;;;14.33;4.07;;;8.30;81.50;;;;;;5096205;28;20028;-75
2022/04/28 06:31:08;;;;;;;11.80;3.03;;;8.30;81.90;;;;;;5096194;28;20032;-75
2022/04/28 06:33:33;;;;;;;10.93;3.43;;;8.40;81.00;;;;;;5089637;28;20044;-78
2022/04/28 06:35:59;;;;;;;13.70;4.00;;;8.40;80.80;;;;;;5061211;28;20071;-78
2022/04/28 06:38:25;;;;;;;11.07;3.00;;;8.40;80.60;;;;;;5043366;28;20078;-78
2022/04/28 06:40:51;;;;;;;13.20;3.63;;;8.50;80.60;;;;;;5060575;28;20027;-77
2022/04/28 06:43:17;;;;;;;12.30;3.20;;;8.60;80.70;;;;;;5095617;28;20028;-75
2022/04/28 06:46:11;;;;;;;12.77;3.60;;;8.60;80.50;;;;;;5077533;28;20377;-75
2022/04/28 06:48:28;;;;;;;8.70;3.10;;;8.60;80.40;;;;;;5095622;28;20039;-73
2022/04/28 06:50:54;;;;;;;12.10;3.00;;;8.70;80.20;;;;;;5094640;28;20032;-72
2022/04/28 06:53:19;;;;;;;10.33;3.83;;;8.70;80.10;;;;;;5074538;28;20446;-73
2022/04/28 06:55:45;;;;;;;10.20;3.13;;;8.80;79.90;;;;;;5044351;28;20455;-73
2022/04/28 06:58:11;;;;;;;9.70;3.57;;;8.80;79.30;;;;;;5095700;28;20036;-72
2022/04/28 07:00:36;;;;;;;7.60;2.67;;;8.80;78.80;;;;;;5078943;28;20032;-72
2022/04/28 07:03:02;;;;;;;12.90;2.97;;;8.90;78.90;;;;;;5094030;28;20020;-73
2022/04/28 07:05:28;;;;;;;10.23;2.97;;;8.90;78.80;;;;;;5076786;28;20028;-72
2022/04/28 07:07:54;;;;;;;13.50;3.67;;;8.90;78.70;;;;;;5077146;28;20028;-72
2022/04/28 07:10:19;;;;;;;7.47;2.50;;;9.00;78.60;;;;;;5061045;28;20480;-72
2022/04/28 07:12:45;;;;;;;10.03;3.00;;;9.00;78.40;;;;;;5077271;28;20032;-72
2022/04/28 07:15:10;;;;;;;6.83;2.37;;;9.10;78.40;;;;;;5095389;28;20052;-72
2022/04/28 07:17:36;;;;;;;10.53;3.10;;;9.10;78.20;;;;;;5043580;28;20465;-72
2022/04/28 07:20:02;;;;;;;11.10;2.70;;;9.20;78.00;;;;;;5077131;28;20032;-72
2022/04/28 07:22:28;;;;;;;12.33;3.60;;;9.20;78.00;;;;;;5060366;28;20028;-73
2022/04/28 07:24:53;;;;;;;9.03;2.60;;;9.30;77.90;;;;;;5075995;28;20484;-73
2022/04/28 07:27:20;;;;;;;9.70;3.00;;;9.30;77.70;;;;;;5043257;28;20089;-72
2022/04/28 07:29:45;;;;;;;9.10;2.90;;;9.30;76.80;;;;;;5060215;28;20035;-74
2022/04/28 07:32:11;;;;;;;8.60;2.37;;;9.40;76.40;;;;;;5095061;28;20400;-73
2022/04/28 07:34:37;;;;;;;10.87;2.43;;;9.40;75.90;;;;;;5059854;28;20039;-74
2022/04/28 07:37:03;;;;;;;13.73;2.67;;;9.50;76.00;;;;;;5058614;28;20061;-72
2022/04/28 07:39:28;;;;;;;7.93;2.33;;;9.50;75.60;;;;;;5076077;28;20040;-73
2022/04/28 07:41:54;;;;;;;6.23;1.93;;;9.50;75.20;;;;;;5057444;28;20366;-75
2022/04/28 07:44:20;;;;;;;10.53;2.87;;;9.60;74.60;;;;;;5056581;28;20497;-73
2022/04/28 07:46:45;;;;;;;9.30;2.63;;;9.70;74.40;;;;;;5092873;28;20028;-72
2022/04/28 07:49:11;;;;;;;8.77;2.00;;;9.60;74.10;;;;;;5076395;28;20123;-72
2022/04/28 07:51:37;;;;;;;8.00;2.30;;;9.70;74.50;;;;;;5043297;28;20028;-73
2022/04/28 07:54:06;;;;;;;11.77;2.80;;;9.70;74.30;;;;;;5076394;28;20517;-73
2022/04/28 07:56:31;;;;;;;7.33;2.00;;;9.80;73.90;;;;;;5059722;28;20039;-72
2022/04/28 07:58:57;;;;;;;10.33;2.57;;;9.80;73.60;;;;;;5094088;28;20024;-74
2022/04/28 08:01:24;;;;;;;17.37;3.30;;;9.80;73.70;;;;;;5075990;28;20085;-75
2022/04/28 08:03:50;;;;;;;11.20;2.60;;;9.90;72.80;;;;;;5105770;28;20020;-71
2022/04/28 08:06:15;;;;;;;9.40;2.27;;;9.90;72.90;;;;;;5075841;28;20063;-72
2022/04/28 08:08:42;;;;;;;9.10;1.93;;;10.00;73.10;;;;;;5072873;28;20068;-73
2022/04/28 08:11:08;;;;;;;6.50;1.87;;;10.00;73.20;;;;;;5075642;28;20028;-71
2022/04/28 08:13:34;;;;;;;8.03;2.57;;;10.10;73.30;;;;;;5093952;28;20436;-71
2022/04/28 08:16:01;;;;;;;5.23;2.10;;;10.10;73.50;;;;;;5075772;28;20032;-74
2022/04/28 08:18:30;;;;;;;11.73;2.80;;;10.30;73.90;;;;;;5075977;28;20028;-74
2022/04/28 08:20:56;;;;;;;8.03;2.03;;;10.40;74.10;;;;;;5055874;28;20385;-73
2022/04/28 08:23:21;;;;;;;8.90;2.20;;;10.40;73.90;;;;;;5055543;28;20056;-75
2022/04/28 08:25:49;;;;;;;6.00;2.00;;;10.50;73.90;;;;;;5073878;28;20025;-73
2022/04/28 08:28:14;;;;;;;9.33;2.30;;;10.50;73.30;;;;;;5039329;28;20068;-72
2022/04/28 08:30:40;;;;;;;9.67;2.80;;;10.60;72.90;;;;;;5072904;28;20075;-74
2022/04/28 08:33:06;;;;;;;7.40;2.63;;;10.70;72.70;;;;;;5039147;28;20028;-73
2022/04/28 08:35:31;;;;;;;10.30;2.70;;;10.80;72.60;;;;;;5055620;28;20040;-74
2022/04/28 08:37:57;;;;;;;14.33;3.03;;;10.80;72.20;;;;;;5064089;28;20381;-73
2022/04/28 08:40:24;;;;;;;11.53;2.80;;;10.90;71.90;;;;;;5058876;28;20024;-72
2022/04/28 08:42:50;;;;;;;8.10;2.60;;;10.90;71.50;;;;;;5058613;28;20020;-73
2022/04/28 08:45:18;;;;;;;11.50;3.30;;;11.00;71.60;;;;;;5059130;28;20365;-74
2022/04/28 08:47:47;;;;;;;9.20;2.57;;;11.10;71.50;;;;;;5076026;28;20021;-73
2022/04/28 08:50:13;;;;;;;10.00;2.30;;;11.10;71.80;;;;;;5075931;28;20039;-76
2022/04/28 08:52:39;;;;;;;6.00;2.10;;;11.20;71.70;;;;;;5075237;28;20369;-75
2022/04/28 08:55:06;;;;;;;8.67;2.23;;;11.30;71.60;;;;;;5093372;28;20032;-74
2022/04/28 08:57:34;;;;;;;7.60;3.43;;;11.40;71.40;;;;;;5075146;28;20035;-74
2022/04/28 09:00:00;;;;;;;8.00;3.45;;;11.60;71.00;;;;;;5074690;28;20073;-73
2022/04/28 09:02:29;;;;;;;13.52;3.03;;;11.60;70.70;;;;;;5074810;28;20028;-73
2022/04/28 09:05:05;;;;;;;10.43;2.75;;;11.70;70.40;;;;;;5075477;28;20024;-73
2022/04/28 09:07:37;;;;;;;9.48;3.28;;;11.70;70.20;;;;;;5075290;28;20017;-74
2022/04/28 09:10:24;;;;;;;7.57;2.65;;;11.80;69.90;;;;;;5093525;28;20365;-73
2022/04/28 09:14:09;;;;;;;10.35;3.05;;;11.90;69.30;;;;;;5075329;28;20024;-74
2022/04/28 09:15:51;;;;;;;9.88;2.72;;;12.00;68.60;;;;;;5092817;28;20032;-74
2022/04/28 09:18:18;;;;;;;9.45;2.92;;;12.10;68.30;;;;;;5090785;28;20043;-75
2022/04/28 09:20:45;;;;;;;8.00;2.60;;;12.20;68.10;;;;;;5092003;28;20017;-73
2022/04/28 09:23:12;;;;;;;9.13;2.60;;;12.30;68.00;;;;;;5092927;28;20540;-74
2022/04/28 09:25:42;;;;;;;11.07;3.55;;;12.30;67.70;;;;;;5056308;28;20053;-74
2022/04/28 09:28:10;;;;;;;11.77;3.15;;;12.40;67.20;;;;;;5094990;28;20027;-74
2022/04/28 09:30:49;;;;;;;9.43;2.85;;;12.50;66.90;;;;;;5074735;28;20031;-74
2022/04/28 09:33:15;;;;;;;14.52;3.28;;;12.60;66.60;;;;;;5074541;28;20107;-74
2022/04/28 09:35:50;;;;;;;11.00;2.92;;;12.70;66.30;;;;;;5091577;28;20039;-74
2022/04/28 09:38:16;;;;;;;8.45;3.25;;;12.80;66.30;;;;;;5092725;28;20423;-74
2022/04/28 09:43:32;;;;;;;7.75;3.10;;;12.90;66.10;;;;;;5076790;28;20043;-76
2022/04/28 09:45:58;;;;;;;7.00;2.42;;;13.00;65.60;;;;;;5058137;28;20484;-74
2022/04/28 09:48:28;;;;;;;11.32;2.80;;;13.10;65.00;;;;;;5076519;28;20036;-75
2022/04/28 09:51:09;;;;;;;7.85;2.38;;;13.20;64.30;;;;;;5077641;28;20028;-75
2022/04/28 09:53:37;;;;;;;9.43;2.60;;;13.20;64.20;;;;;;5077950;28;20028;-74
2022/04/28 09:56:07;;;;;;;12.20;3.08;;;13.30;64.20;;;;;;5077492;28;20035;-76
2022/04/28 09:58:33;;;;;;;8.98;3.08;;;13.40;63.90;;;;;;5078370;28;20031;-77
2022/04/28 10:01:03;;;;;;;8.85;2.08;;;13.50;63.50;;;;;;5112230;28;20482;-75
2022/04/28 10:03:34;;;;;;;5.60;2.72;;;13.60;63.10;;;;;;5078441;28;20036;-75
2022/04/28 10:06:02;;;;;;;8.63;2.38;;;13.60;62.70;;;;;;5078291;28;20032;-75
2022/04/28 10:08:32;;;;;;;9.57;2.90;;;13.70;62.30;;;;;;5096550;28;20119;-74
2022/04/28 10:11:00;;;;;;;8.57;2.80;;;13.70;62.00;;;;;;5078180;28;20024;-75
2022/04/28 10:13:29;;;;;;;9.63;2.65;;;13.80;61.80;;;;;;5078239;28;20093;-74
2022/04/28 10:16:02;;;;;;;7.78;2.10;;;13.90;61.60;;;;;;5079051;28;20032;-75
2022/04/28 10:18:33;;;;;;;9.85;2.88;;;14.10;61.30;;;;;;5116660;28;20488;-76
2022/04/28 10:21:01;;;;;;;10.40;2.58;;;14.30;60.70;;;;;;5086636;28;20020;-74
2022/04/28 10:34:58;;;;;;;7.45;2.17;;;16.40;59.40;;;;;;5056138;28;20120;-75
2022/04/28 10:37:30;;;;;;;7.70;1.90;;;17.10;58.90;;;;;;5054465;28;20036;-76
2022/04/28 10:39:56;;;;;;;8.52;2.22;;;17.80;59.00;;;;;;5055783;28;20112;-75
2022/04/28 10:42:27;;;;;;;8.07;2.17;;;18.50;58.40;;;;;;5055393;28;20106;-75
2022/04/28 10:45:04;;;;;;;5.13;1.52;;;19.30;57.20;;;;;;5055509;28;20021;-76
2022/04/28 10:47:38;;;;;;;6.80;1.73;;;20.10;57.00;;;;;;5054239;28;20056;-76
2022/04/28 10:50:24;;;;;;;7.18;1.45;;;21.00;55.40;;;;;;5055694;28;20025;-76
2022/04/28 10:53:20;;;;;;;6.47;1.27;;;21.90;53.70;;;;;;5034993;28;20035;-76
2022/04/28 10:55:49;;;;;;;7.22;1.73;;;22.80;52.60;;;;;;5051072;28;20033;-80
2022/04/28 10:58:25;;;;;;;6.38;1.63;;;23.50;50.70;;;;;;5054055;28;20121;-82
2022/04/28 11:00:56;;;;;;;4.93;1.30;;;24.10;48.00;;;;;;5053857;28;20018;-80
2022/04/28 11:03:44;;;;;;;6.97;1.42;;;24.70;46.30;;;;;;5034280;28;20453;-83
2022/04/28 11:06:19;;;;;;;5.32;1.67;;;25.30;44.10;;;;;;5034261;28;20120;-82
2022/04/28 11:08:50;;;;;;;6.40;1.73;;;25.80;43.10;;;;;;5034055;28;20025;-79
2022/04/28 11:11:16;;;;;;;7.43;1.73;;;26.20;42.30;;;;;;5048221;28;20044;-77
2022/04/28 11:13:48;;;;;;;6.22;1.70;;;26.40;41.60;;;;;;5053337;28;20493;-80
2022/04/28 11:16:16;;;;;;;7.70;1.63;;;26.80;40.80;;;;;;5053762;28;20033;-80
2022/04/28 11:18:43;;;;;;;7.88;1.65;;;27.10;40.30;;;;;;5054597;28;20033;-81
2022/04/28 11:21:09;;;;;;;6.30;1.58;;;27.50;39.70;;;;;;5055061;28;20517;-82
2022/04/28 11:23:37;;;;;;;5.57;1.30;;;27.80;38.90;;;;;;5046834;28;20083;-80
2022/04/28 11:26:03;;;;;;;5.75;1.95;;;28.20;38.20;;;;;;5060781;28;20036;-81
2022/04/28 11:28:33;;;;;;;6.20;1.50;;;28.60;37.60;;;;;;5037114;28;20428;-82
2022/04/28 11:30:59;;;;;;;4.68;1.20;;;28.80;36.50;;;;;;5053854;28;20020;-82
2022/04/28 11:33:25;;;;;;;5.53;1.60;;;29.10;36.00;;;;;;5053591;28;20036;-79
2022/04/28 11:35:51;;;;;;;5.15;1.30;;;29.30;35.70;;;;;;5072698;28;20021;-79
2022/04/28 11:38:27;;;;;;;5.80;1.60;;;29.60;35.40;;;;;;5074921;28;20108;-80
2022/04/28 11:41:03;;;;;;;4.80;1.40;;;29.90;34.70;;;;;;5057623;28;20027;-76
2022/04/28 11:43:34;;;;;;;5.70;1.40;;;30.10;34.40;;;;;;5073566;28;20028;-80
2022/04/28 11:46:01;;;;;;;5.95;1.48;;;30.50;34.40;;;;;;5073199;28;20021;-81
2022/04/28 11:48:28;;;;;;;6.53;1.52;;;30.60;34.20;;;;;;5074555;28;20028;-83
2022/04/28 11:51:04;;;;;;;3.95;1.38;;;30.90;33.90;;;;;;5073166;28;20054;-82
2022/04/28 11:53:41;;;;;;;6.25;1.45;;;31.10;33.60;;;;;;5073145;28;20028;-77
2022/04/28 11:56:29;;;;;;;4.00;1.40;;;31.30;32.90;;;;;;5073387;28;20507;-76
2022/04/28 11:58:55;;;;;;;4.68;1.48;;;31.50;32.60;;;;;;5057064;28;20101;-79
2022/04/28 12:01:22;;;;;;;3.28;1.17;;;31.80;32.50;;;;;;5050204;28;20090;-77
2022/04/28 12:03:53;;;;;;;6.05;1.38;;;31.90;32.60;;;;;;5056904;28;20021;-76
2022/04/28 12:06:21;;;;;;;5.50;1.52;;;31.90;31.60;;;;;;5058144;28;20029;-77
2022/04/28 12:08:53;;;;;;;5.65;1.98;;;32.00;31.70;;;;;;5035892;28;20060;-78
2022/04/28 12:19:50;;;;;;;4.30;1.00;;;32.10;31.20;;;;;;5068519;28;20036;-77
2022/04/28 12:22:28;;;;;;;4.22;1.10;;;31.80;31.00;;;;;;5053975;28;20465;-77
2022/04/28 12:24:54;;;;;;;4.13;1.50;;;31.60;31.00;;;;;;5075880;28;20093;-75
2022/04/28 12:27:20;;;;;;;4.88;1.15;;;31.50;31.00;;;;;;5075552;28;20016;-78
2022/04/28 12:29:58;;;;;;;3.92;1.00;;;31.40;30.90;;;;;;5093814;28;20421;-80
2022/04/28 12:32:23;;;;;;;5.07;1.38;;;31.10;30.90;;;;;;5075698;28;20089;-80
2022/04/28 12:35:01;;;;;;;4.82;1.40;;;30.90;31.10;;;;;;5075313;28;20456;-77
2022/04/28 12:37:28;;;;;;;4.78;1.08;;;30.90;31.00;;;;;;5075693;28;20412;-79
2022/04/28 12:39:58;;;;;;;3.83;1.10;;;30.90;31.00;;;;;;5093864;28;20373;-78
2022/04/28 12:42:26;;;;;;;3.83;1.05;;;30.80;31.20;;;;;;5094133;28;20425;-78
2022/04/28 12:44:52;;;;;;;4.18;1.17;;;30.70;31.40;;;;;;5076030;28;20545;-79
2022/04/28 12:47:18;;;;;;;4.10;1.20;;;30.60;31.30;;;;;;5094359;28;20036;-81
2022/04/28 12:50:12;;;;;;;5.15;1.25;;;30.40;31.40;;;;;;5051719;28;20028;-81
2022/04/28 12:52:36;;;;;;;4.90;1.27;;;30.30;31.50;;;;;;5058193;28;20031;-83
2022/04/28 12:55:06;;;;;;;6.78;1.42;;;30.30;31.70;;;;;;5055141;28;20056;-83
2022/04/28 12:57:33;;;;;;;3.85;1.17;;;30.40;31.50;;;;;;5055583;28;20055;-81
2022/04/28 13:00:06;;;;;;;6.57;1.67;;;30.40;31.20;;;;;;5056899;28;20033;-81
2022/04/28 13:02:33;;;;;;;3.42;1.10;;;30.50;31.30;;;;;;5073761;28;20020;-81
2022/04/28 13:05:13;;;;;;;5.70;2.15;;;30.40;31.20;;;;;;5073713;28;20021;-81
2022/04/28 13:07:40;;;;;;;4.97;1.00;;;30.50;31.20;;;;;;5074085;28;20025;-81
2022/04/28 13:10:07;;;;;;;5.28;1.10;;;30.50;31.30;;;;;;5074780;28;20048;-80
2022/04/28 13:12:33;;;;;;;4.63;1.40;;;30.50;31.30;;;;;;5055671;28;20373;-82
2022/04/28 13:15:01;;;;;;;4.65;1.17;;;30.50;31.30;;;;;;5086869;28;20032;-82
2022/04/28 13:17:30;;;;;;;4.82;1.10;;;30.60;31.20;;;;;;5083917;28;20032;-83
2022/04/28 13:19:56;;;;;;;5.57;1.23;;;30.70;31.00;;;;;;5083367;28;20113;-81
2022/04/28 13:22:22;;;;;;;3.72;1.30;;;30.80;30.90;;;;;;5099115;28;20045;-77
2022/04/28 13:24:49;;;;;;;3.42;1.08;;;30.90;30.70;;;;;;5050233;28;20037;-77
2022/04/28 13:27:15;;;;;;;7.03;1.20;;;31.10;30.60;;;;;;5076693;28;20033;-76
2022/04/28 13:29:42;;;;;;;7.47;1.50;;;31.30;30.50;;;;;;5059054;28;20093;-76